Daphne, Alabama
Current Conditions -  °F | °C
As of 12:55 AM on Monday 24 Nov 2014 (Local Time) from KCQF Reporting Station
Overcast Overcast  
Wind Chill: 68°   Ceiling: 400
Heat Index: 68°   Visibility: 7mi
Dew Point: 68°   Wind: 6mph
Humidity: 100%   Direction: 180°S
Pressure: 29.77"   Gusts: NA
Location:  30.6°N, 87.9°W
Report Text: KCQF 240655Z AUTO 18005KT 7SM OVC004 20/20 A2977 RMK AO2
Loading
Personal Weather Stations






























Interactive Weather Map New forecast layout! Learn more

10-Day Weather Forecast

Advertisements
Track Severe Weather on mobile